Time;durP1;ratioP1;P1;durP2;ratioP2;P2;SDS_P1;SDS_P2;PMS_P1;PMS_P2;Temp;Humidity;BMP_temperature;BMP_pressure;BME280_temperature;BME280_humidity;BME280_pressure;Samples;Min_cycle;Max_cycle;Signal;HPM_P1;HPM_P2
2023/03/04 00:02:31;;;;;;;66.35;20.92;;;3.50;99.90;;;3.21;100.00;101932.16;5251872;28;20044;-85
2023/03/04 00:05:06;;;;;;;67.50;21.88;;;3.50;99.90;;;3.22;100.00;101933.97;5243547;28;20428;-85
2023/03/04 00:07:38;;;;;;;66.57;18.25;;;3.40;99.90;;;3.23;100.00;101930.59;5252345;28;20289;-85
2023/03/04 00:10:12;;;;;;;71.75;20.90;;;3.50;99.90;;;3.23;100.00;101935.75;5242342;28;20153;-85
2023/03/04 00:12:44;;;;;;;58.78;18.38;;;3.50;99.90;;;3.26;100.00;101936.03;5258236;28;20047;-84
2023/03/04 00:15:16;;;;;;;60.15;18.35;;;3.50;99.90;;;3.25;100.00;101924.78;5243648;28;20040;-83
2023/03/04 00:17:48;;;;;;;63.42;18.77;;;3.50;99.90;;;3.25;100.00;101927.34;5235347;28;20087;-84
2023/03/04 00:20:22;;;;;;;60.50;18.85;;;3.50;99.90;;;3.25;100.00;101926.47;5238993;28;20052;-84
2023/03/04 00:22:54;;;;;;;78.18;22.10;;;3.50;99.90;;;3.25;100.00;101934.19;5237302;28;20045;-84
2023/03/04 00:25:26;;;;;;;65.95;20.42;;;3.50;99.90;;;3.24;100.00;101927.25;5239474;28;20154;-85
2023/03/04 00:27:59;;;;;;;63.75;18.20;;;3.50;99.90;;;3.24;100.00;101925.56;5239239;28;20506;-85
2023/03/04 00:30:32;;;;;;;64.10;18.40;;;3.50;99.90;;;3.25;100.00;101929.03;5241907;28;20054;-85
2023/03/04 00:33:04;;;;;;;63.08;18.98;;;3.50;99.90;;;3.27;100.00;101927.50;5256079;28;20049;-85
2023/03/04 00:35:37;;;;;;;62.20;19.67;;;3.50;99.90;;;3.26;100.00;101928.28;5242770;28;20059;-84
2023/03/04 00:38:10;;;;;;;56.95;17.85;;;3.50;99.90;;;3.28;100.00;101924.16;5240225;28;20528;-84
2023/03/04 00:40:42;;;;;;;59.88;18.10;;;3.50;99.90;;;3.30;100.00;101922.59;5240190;28;20052;-84
2023/03/04 00:43:14;;;;;;;59.25;19.00;;;3.50;99.90;;;3.28;100.00;101923.25;5239682;28;20461;-84
2023/03/04 00:45:46;;;;;;;60.83;17.65;;;3.50;99.90;;;3.30;100.00;101929.44;5238629;28;20047;-85
2023/03/04 00:48:19;;;;;;;61.85;17.20;;;3.50;99.90;;;3.29;100.00;101925.06;5238549;28;20047;-86
2023/03/04 00:50:53;;;;;;;57.97;17.17;;;3.50;99.90;;;3.30;100.00;101917.44;5247560;28;20033;-85
2023/03/04 00:53:25;;;;;;;53.97;17.40;;;3.50;99.90;;;3.30;100.00;101913.97;5239925;28;20095;-84
2023/03/04 00:55:57;;;;;;;60.20;17.90;;;3.50;99.90;;;3.30;100.00;101917.44;5235539;28;20067;-84
2023/03/04 00:58:29;;;;;;;58.67;17.83;;;3.50;99.90;;;3.30;100.00;101912.28;5246363;28;20504;-84
2023/03/04 01:01:01;;;;;;;59.00;17.20;;;3.50;99.90;;;3.32;100.00;101913.28;5239686;28;20081;-84
2023/03/04 01:03:33;;;;;;;61.08;16.98;;;3.50;99.90;;;3.33;100.00;101911.66;5238295;28;20054;-84
2023/03/04 01:06:07;;;;;;;57.25;16.60;;;3.50;99.90;;;3.34;100.00;101903.13;5237355;28;20037;-83
2023/03/04 01:08:39;;;;;;;51.78;15.77;;;3.50;99.90;;;3.36;100.00;101912.78;5235353;28;20140;-84
2023/03/04 01:11:13;;;;;;;59.38;17.67;;;3.60;99.90;;;3.36;100.00;101902.47;5242934;28;20090;-85
2023/03/04 01:13:46;;;;;;;53.83;16.95;;;3.60;99.90;;;3.37;100.00;101904.25;5238992;28;20094;-85
2023/03/04 01:16:18;;;;;;;61.67;18.50;;;3.60;99.90;;;3.37;100.00;101908.53;5239489;28;20032;-84
2023/03/04 01:18:50;;;;;;;73.75;21.65;;;3.60;99.90;;;3.36;100.00;101907.63;5235699;28;20048;-84
2023/03/04 01:21:23;;;;;;;68.35;21.10;;;3.60;99.90;;;3.33;100.00;101906.50;5238069;28;20052;-84
2023/03/04 01:23:56;;;;;;;59.60;18.58;;;3.60;99.90;;;3.34;100.00;101904.03;5251322;28;20040;-83
2023/03/04 01:26:28;;;;;;;61.22;19.63;;;3.60;99.90;;;3.35;100.00;101899.78;5235770;28;20049;-85
2023/03/04 01:29:00;;;;;;;63.35;18.13;;;3.60;99.90;;;3.35;100.00;101895.53;5231797;28;20071;-84
2023/03/04 01:31:32;;;;;;;64.00;19.25;;;3.60;99.90;;;3.35;100.00;101895.53;5239116;28;20079;-84
2023/03/04 01:34:04;;;;;;;63.45;18.77;;;3.60;99.90;;;3.37;100.00;101893.06;5238067;28;20055;-84
2023/03/04 01:36:38;;;;;;;60.33;17.75;;;3.60;99.90;;;3.37;100.00;101888.81;5242511;28;20138;-84
2023/03/04 01:39:10;;;;;;;57.97;17.90;;;3.60;99.90;;;3.38;100.00;101884.53;5242451;28;20045;-84
2023/03/04 01:41:42;;;;;;;59.78;17.88;;;3.60;99.90;;;3.37;100.00;101882.75;5244222;28;20074;-84
2023/03/04 01:44:14;;;;;;;59.35;17.83;;;3.60;99.90;;;3.37;100.00;101877.59;5240585;28;20147;-86
2023/03/04 01:46:50;;;;;;;62.97;17.88;;;3.60;99.90;;;3.39;100.00;101878.59;5245908;28;20138;-84
2023/03/04 01:49:23;;;;;;;65.47;18.77;;;3.60;99.90;;;3.42;100.00;101878.88;5237960;28;20044;-84
2023/03/04 01:51:56;;;;;;;51.38;17.10;;;3.60;99.90;;;3.43;100.00;101868.69;5232170;28;20056;-85
2023/03/04 01:54:28;;;;;;;55.53;16.77;;;3.70;99.90;;;3.43;100.00;101863.53;5232080;28;20055;-84
2023/03/04 01:57:01;;;;;;;61.25;17.83;;;3.70;99.90;;;3.43;100.00;101863.53;5235715;28;20524;-85
2023/03/04 01:59:33;;;;;;;57.75;18.42;;;3.70;99.90;;;3.43;100.00;101853.22;5233746;28;20040;-85
2023/03/04 02:02:05;;;;;;;61.28;17.92;;;3.70;99.90;;;3.43;100.00;101858.38;5234957;28;20070;-86
2023/03/04 02:04:37;;;;;;;56.10;16.50;;;3.70;99.90;;;3.45;100.00;101861.94;5234001;28;20041;-85
2023/03/04 02:07:11;;;;;;;61.60;17.58;;;3.70;99.90;;;3.45;100.00;101861.06;5236176;28;20528;-85
2023/03/04 02:09:43;;;;;;;54.03;17.20;;;3.70;99.90;;;3.43;100.00;101863.53;5242021;28;20406;-84
2023/03/04 02:12:18;;;;;;;;;;;3.70;99.90;;;3.45;100.00;101867.09;5237882;28;20067;-85
2023/03/04 02:14:50;;;;;;;50.92;14.48;;;3.70;99.90;;;3.48;100.00;101856.16;5244129;28;19924;-85
2023/03/04 02:17:26;;;;;;;55.45;15.55;;;3.70;99.90;;;3.49;100.00;101853.69;5238406;28;20051;-84
2023/03/04 02:20:07;;;;;;;61.85;17.55;;;3.70;99.90;;;3.49;100.00;101845.97;5238402;28;20040;-85
2023/03/04 02:22:47;;;;;;;;;;;3.70;99.90;;;3.42;100.00;101846.25;5239011;28;20044;-83
2023/03/04 02:25:24;;;;;;;57.35;17.58;;;3.70;99.90;;;3.39;100.00;101851.19;5238432;28;19921;-85
2023/03/04 02:27:58;;;;;;;66.43;17.85;;;3.70;99.90;;;3.39;100.00;101840.88;5239018;28;20049;-86
2023/03/04 02:30:30;;;;;;;57.63;18.50;;;3.70;99.90;;;3.41;100.00;101848.72;5234966;28;20079;-84
2023/03/04 02:33:02;;;;;;;55.05;16.13;;;3.70;99.90;;;3.42;100.00;101848.84;5240250;28;20143;-86
2023/03/04 02:35:35;;;;;;;64.60;19.50;;;3.70;99.90;;;3.42;100.00;101840.22;5238950;28;20051;-85
2023/03/04 02:38:08;;;;;;;57.38;17.38;;;3.70;99.90;;;3.45;100.00;101840.44;5236915;28;20136;-86
2023/03/04 02:40:46;;;;;;;57.53;16.90;;;3.70;99.90;;;3.44;100.00;101839.53;5245476;28;20052;-84
2023/03/04 02:43:21;;;;;;;51.88;15.90;;;3.70;99.90;;;3.45;100.00;101833.59;5241319;28;20037;-86
2023/03/04 02:45:53;;;;;;;57.75;15.82;;;3.70;99.90;;;3.49;100.00;101838.22;5237815;28;20056;-85
2023/03/04 02:48:26;;;;;;;51.83;15.85;;;3.70;99.90;;;3.52;100.00;101837.56;5241275;28;20088;-86
2023/03/04 02:50:59;;;;;;;57.63;17.02;;;3.80;99.90;;;3.51;100.00;101836.66;5241328;28;20040;-85
2023/03/04 02:53:31;;;;;;;57.83;17.08;;;3.70;99.90;;;3.52;100.00;101833.34;5243748;28;20059;-83
2023/03/04 02:56:05;;;;;;;54.15;15.63;;;3.70;99.90;;;3.57;100.00;101831.09;5236908;28;20544;-85
2023/03/04 02:58:42;;;;;;;54.00;16.20;;;3.80;99.90;;;3.56;100.00;101823.25;5237157;28;20048;-85
2023/03/04 03:01:16;;;;;;;53.35;15.05;;;3.80;99.90;;;3.62;100.00;101834.94;5242906;28;20024;-85
2023/03/04 03:03:49;;;;;;;56.88;15.65;;;3.80;99.90;;;3.65;100.00;101829.13;5241069;28;20094;-86
2023/03/04 03:06:21;;;;;;;52.42;15.60;;;3.80;99.90;;;3.65;100.00;101829.13;5243017;28;20063;-86
2023/03/04 03:08:53;;;;;;;59.90;18.65;;;3.90;99.90;;;3.63;100.00;101830.69;5242860;28;20105;-86
2023/03/04 03:11:25;;;;;;;54.78;16.58;;;3.80;99.90;;;3.61;100.00;101824.53;5222085;22;20412;-86
2023/03/04 03:14:00;;;;;;;58.72;17.42;;;3.80;99.90;;;3.63;100.00;101822.94;5212216;28;20033;-85
2023/03/04 03:16:33;;;;;;;54.92;16.58;;;3.80;99.90;;;3.64;100.00;101824.75;5211460;28;20045;-85
2023/03/04 03:19:05;;;;;;;56.83;16.75;;;3.80;99.90;;;3.65;100.00;101818.81;5196186;28;20054;-85
2023/03/04 03:21:39;;;;;;;49.33;15.35;;;3.90;99.90;;;3.66;100.00;101821.53;5195481;28;20040;-85
2023/03/04 03:24:11;;;;;;;60.28;19.33;;;3.90;99.90;;;3.64;100.00;101822.16;5196675;28;20037;-85
2023/03/04 03:26:43;;;;;;;66.53;17.98;;;3.90;99.90;;;3.60;100.00;101815.88;5215769;28;20112;-85
2023/03/04 03:29:17;;;;;;;55.97;16.42;;;3.90;99.90;;;3.61;100.00;101812.53;5197000;28;20053;-86
2023/03/04 03:31:49;;;;;;;51.92;15.68;;;3.90;99.90;;;3.62;100.00;101808.25;5195018;28;20050;-86
2023/03/04 03:34:21;;;;;;;51.63;16.58;;;3.80;99.90;;;3.66;100.00;101815.47;5191253;28;20107;-86
2023/03/04 03:36:54;;;;;;;50.92;14.77;;;3.90;99.90;;;3.67;100.00;101813.00;5191101;28;20053;-86
2023/03/04 03:39:26;;;;;;;44.08;14.05;;;3.90;99.90;;;3.68;100.00;101808.75;5191588;28;20426;-85
2023/03/04 03:41:58;;;;;;;51.47;14.85;;;3.90;99.90;;;3.70;100.00;101799.44;5209849;28;20457;-84
2023/03/04 03:44:32;;;;;;;49.20;15.65;;;3.90;99.90;;;3.72;100.00;101801.38;5191298;28;20044;-83
2023/03/04 03:47:04;;;;;;;50.30;14.63;;;3.90;99.90;;;3.73;100.00;101808.34;5184364;28;20049;-85
2023/03/04 03:49:36;;;;;;;48.55;14.35;;;3.90;99.90;;;3.74;100.00;101804.06;5191454;28;20157;-86
2023/03/04 03:52:09;;;;;;;50.85;14.77;;;3.90;99.90;;;3.75;100.00;101803.28;5191320;28;20053;-86
2023/03/04 03:54:42;;;;;;;54.15;16.70;;;3.90;99.90;;;3.74;100.00;101804.06;5191074;28;20113;-85
2023/03/04 03:57:14;;;;;;;67.75;20.27;;;3.90;99.90;;;3.72;100.00;101800.47;5208386;28;20033;-86
2023/03/04 03:59:47;;;;;;;55.53;17.15;;;3.90;99.90;;;3.70;100.00;101802.03;5191411;28;20060;-86
2023/03/04 04:02:19;;;;;;;58.33;17.27;;;4.00;99.90;;;3.68;100.00;101804.50;5191790;28;20041;-86
2023/03/04 04:04:51;;;;;;;58.38;16.85;;;4.00;99.90;;;3.67;100.00;101802.69;5192396;28;20438;-85
2023/03/04 04:07:24;;;;;;;58.88;16.73;;;4.00;99.90;;;3.68;100.00;101798.44;5195450;28;20136;-85
2023/03/04 04:09:56;;;;;;;50.50;15.82;;;3.90;99.90;;;3.69;100.00;101797.66;5194189;28;20037;-85
2023/03/04 04:12:28;;;;;;;51.60;15.13;;;3.90;99.90;;;3.71;100.00;101798.66;5194881;28;20052;-86
2023/03/04 04:15:02;;;;;;;53.97;15.05;;;3.90;99.90;;;3.73;100.00;101798.03;5194902;28;20053;-85
2023/03/04 04:17:34;;;;;;;46.33;13.68;;;4.00;99.90;;;3.75;100.00;101798.13;5195042;28;20041;-85
2023/03/04 04:20:08;;;;;;;52.67;17.08;;;4.00;99.90;;;3.75;100.00;101800.72;5194824;28;20060;-84
2023/03/04 04:22:41;;;;;;;52.60;14.93;;;4.00;99.90;;;3.75;100.00;101796.44;5194976;28;20055;-85
2023/03/04 04:25:13;;;;;;;51.08;15.77;;;4.00;99.90;;;3.77;100.00;101796.56;5194918;28;20515;-86
2023/03/04 04:27:45;;;;;;;41.67;12.43;;;4.00;99.90;;;3.79;100.00;101795.03;5194935;28;20045;-84
2023/03/04 04:30:19;;;;;;;51.90;14.95;;;4.00;99.90;;;3.81;100.00;101801.19;5190479;28;20053;-86
2023/03/04 04:32:51;;;;;;;43.50;13.77;;;4.00;99.90;;;3.82;100.00;101797.81;5191191;28;20056;-86
2023/03/04 04:35:24;;;;;;;51.53;14.95;;;4.00;99.90;;;3.83;100.00;101793.56;5194290;28;20462;-87
2023/03/04 04:37:56;;;;;;;45.67;14.15;;;4.00;99.90;;;3.81;100.00;101796.03;5194937;28;20045;-86
2023/03/04 04:40:28;;;;;;;48.15;15.18;;;4.00;99.90;;;3.83;100.00;101793.56;5194972;28;20049;-86
2023/03/04 04:43:00;;;;;;;35.80;12.60;;;4.00;99.90;;;3.83;100.00;101789.28;5193595;28;20056;-85
2023/03/04 04:45:34;;;;;;;41.50;13.40;;;4.00;99.90;;;3.85;100.00;101792.91;5193833;28;20530;-84
2023/03/04 04:48:07;;;;;;;44.03;14.27;;;4.10;99.90;;;3.85;100.00;101794.56;5186266;28;20045;-86
2023/03/04 04:50:39;;;;;;;49.05;13.65;;;4.10;99.90;;;3.86;100.00;101792.13;5193312;28;20055;-86
2023/03/04 04:53:13;;;;;;;49.85;13.52;;;4.10;99.90;;;3.87;100.00;101796.50;5193498;28;20045;-85
2023/03/04 04:55:45;;;;;;;49.33;13.65;;;4.10;99.90;;;3.87;100.00;101796.50;5192865;28;20053;-85
2023/03/04 04:58:17;;;;;;;43.17;14.10;;;4.10;99.90;;;3.88;100.00;101793.13;5192765;28;20053;-85
2023/03/04 05:00:51;;;;;;;49.00;13.98;;;4.10;99.90;;;3.84;100.00;101791.09;5209225;28;20092;-85
2023/03/04 05:03:23;;;;;;;39.45;12.57;;;4.10;99.90;;;3.87;100.00;101786.19;5194212;28;20046;-85
2023/03/04 05:05:55;;;;;;;44.00;12.95;;;4.10;99.90;;;3.88;100.00;101795.72;5194059;28;20061;-84
2023/03/04 05:08:27;;;;;;;39.05;13.23;;;4.10;99.90;;;3.88;100.00;101792.25;5193703;28;20526;-85
2023/03/04 05:11:00;;;;;;;44.53;13.43;;;4.10;99.90;;;3.87;100.00;101806.81;5193359;28;20041;-86
2023/03/04 05:13:33;;;;;;;44.10;14.25;;;4.10;99.90;;;3.88;100.00;101799.97;5194090;28;20045;-86
2023/03/04 05:16:07;;;;;;;52.95;16.70;;;4.10;99.90;;;3.88;100.00;101802.56;5211483;28;20042;-85
2023/03/04 05:18:40;;;;;;;43.58;13.55;;;4.10;99.90;;;3.87;100.00;101801.66;5194166;28;20052;-86
2023/03/04 05:21:12;;;;;;;46.72;13.52;;;4.10;99.90;;;3.87;100.00;101799.09;5194928;28;20132;-86
2023/03/04 05:23:45;;;;;;;41.17;13.25;;;4.10;99.90;;;3.87;100.00;101798.19;5193996;28;20045;-85
2023/03/04 05:26:18;;;;;;;45.15;14.55;;;4.10;99.90;;;3.86;100.00;101804.13;5194057;28;20046;-86
2023/03/04 05:28:50;;;;;;;46.63;13.88;;;4.00;99.90;;;3.83;100.00;101804.78;5193652;28;20038;-84
2023/03/04 05:31:24;;;;;;;50.53;14.45;;;4.10;99.90;;;3.83;100.00;101801.28;5211665;28;20483;-86
2023/03/04 05:33:56;;;;;;;50.92;15.88;;;4.00;99.90;;;3.80;100.00;101794.22;5194195;28;20411;-86
2023/03/04 05:36:28;;;;;;;50.55;14.40;;;4.00;99.90;;;3.82;100.00;101800.41;5194092;28;20048;-85
2023/03/04 05:39:00;;;;;;;45.72;13.27;;;4.00;99.90;;;3.82;100.00;101800.41;5194555;28;20052;-86
2023/03/04 05:41:32;;;;;;;44.35;12.23;;;4.00;99.90;;;3.83;100.00;101803.88;5194294;28;20484;-86
2023/03/04 05:44:05;;;;;;;39.03;12.52;;;4.10;99.90;;;3.83;100.00;101804.78;5186424;28;20495;-85
2023/03/04 05:46:38;;;;;;;41.50;12.20;;;4.10;99.90;;;3.84;100.00;101804.00;5211320;28;20132;-81
2023/03/04 05:49:10;;;;;;;38.17;11.82;;;4.00;99.90;;;3.84;100.00;101806.56;5185567;28;20055;-85
2023/03/04 05:51:42;;;;;;;45.92;13.50;;;4.10;99.90;;;3.85;100.00;101798.06;5192757;28;20033;-85
2023/03/04 05:54:14;;;;;;;40.80;12.52;;;4.10;99.90;;;3.86;100.00;101799.88;5192587;28;20046;-86
2023/03/04 05:56:47;;;;;;;38.35;11.63;;;4.10;99.90;;;3.85;100.00;101800.66;5192290;28;20045;-85
2023/03/04 05:59:19;;;;;;;33.97;11.90;;;4.10;99.90;;;3.86;100.00;101805.03;5192552;28;20037;-84
2023/03/04 06:01:53;;;;;;;38.50;11.40;;;4.10;99.90;;;3.88;100.00;101803.47;5192850;28;20083;-86
2023/03/04 06:04:25;;;;;;;33.70;11.13;;;4.10;99.90;;;3.89;100.00;101810.41;5192791;28;20096;-84
2023/03/04 06:06:57;;;;;;;38.75;11.13;;;4.10;99.90;;;3.90;100.00;101811.31;5210548;28;20049;-86
2023/03/04 06:09:29;;;;;;;40.00;11.93;;;4.10;99.90;;;3.89;100.00;101814.66;5193343;28;20424;-87
2023/03/04 06:12:01;;;;;;;38.38;11.68;;;4.10;99.90;;;3.90;100.00;101819.03;5193234;28;20037;-86
2023/03/04 06:14:33;;;;;;;38.88;12.13;;;4.10;99.90;;;3.90;100.00;101816.47;5211059;28;20037;-86
2023/03/04 06:17:07;;;;;;;37.25;12.00;;;4.10;99.90;;;3.92;100.00;101818.41;5193201;28;20594;-86
2023/03/04 06:19:40;;;;;;;36.75;11.95;;;4.10;99.90;;;3.93;100.00;101816.72;5192604;28;20141;-85
2023/03/04 06:22:12;;;;;;;37.60;10.90;;;4.10;99.90;;;3.93;100.00;101817.63;5192830;28;20073;-85
2023/03/04 06:24:44;;;;;;;41.30;11.88;;;4.10;99.90;;;3.91;100.00;101811.44;5192880;28;20055;-86
2023/03/04 06:27:17;;;;;;;35.88;10.82;;;4.10;99.90;;;3.91;100.00;101816.63;5189485;28;20060;-86
2023/03/04 06:29:49;;;;;;;35.92;10.55;;;4.10;99.90;;;3.95;100.00;101826.38;5187017;28;20133;-86
2023/03/04 06:32:22;;;;;;;33.10;11.65;;;4.10;99.90;;;3.97;100.00;101818.72;5192945;28;20095;-86
2023/03/04 06:34:54;;;;;;;35.10;10.93;;;4.20;99.90;;;3.97;100.00;101816.16;5192785;28;20049;-86
2023/03/04 06:37:26;;;;;;;37.15;11.20;;;4.10;99.90;;;3.98;100.00;101826.63;5210562;28;20044;-86
2023/03/04 06:39:58;;;;;;;40.17;13.98;;;4.20;99.90;;;3.99;100.00;101825.84;5210768;28;20403;-86
2023/03/04 06:42:31;;;;;;;46.65;15.02;;;4.20;99.90;;;3.99;100.00;101830.09;5193088;28;20154;-85
2023/03/04 06:45:04;;;;;;;51.50;14.85;;;4.20;99.90;;;3.97;100.00;101832.53;5194055;28;20053;-87
2023/03/04 06:47:38;;;;;;;44.00;13.40;;;4.20;99.90;;;3.99;100.00;101833.56;5194774;28;20112;-87
2023/03/04 06:50:13;;;;;;;41.70;12.52;;;4.20;99.90;;;4.00;100.00;101826.72;5193392;28;20097;-85
2023/03/04 06:52:45;;;;;;;38.10;12.23;;;4.20;99.90;;;4.04;100.00;101844.22;5192887;28;20411;-85
2023/03/04 06:55:18;;;;;;;40.42;13.07;;;4.20;99.90;;;4.04;100.00;101847.75;5194004;28;20123;-87
2023/03/04 06:57:50;;;;;;;34.65;11.20;;;4.30;99.90;;;4.05;100.00;101839.22;5192207;28;20095;-85
2023/03/04 07:00:23;;;;;;;41.88;12.55;;;4.20;99.90;;;4.07;100.00;101841.91;5209985;28;20046;-86
2023/03/04 07:02:58;;;;;;;39.65;11.90;;;4.30;99.90;;;4.09;100.00;101841.22;5191529;28;20483;-85
2023/03/04 07:05:30;;;;;;;35.15;11.07;;;4.30;99.90;;;4.12;100.00;101844.84;5195202;28;20045;-86
2023/03/04 07:08:03;;;;;;;40.15;10.85;;;4.30;99.90;;;4.14;100.00;101848.44;5194685;28;20045;-86
2023/03/04 07:10:35;;;;;;;43.55;13.20;;;4.30;99.90;;;4.16;100.00;101846.88;5194621;28;20068;-86
2023/03/04 07:13:07;;;;;;;31.58;11.00;;;4.30;99.90;;;4.18;100.00;101847.91;5195932;28;20056;-86
2023/03/04 07:15:39;;;;;;;34.05;10.88;;;4.40;99.90;;;4.21;100.00;101854.19;5200453;28;20050;-87
2023/03/04 07:18:13;;;;;;;34.05;10.38;;;4.40;99.90;;;4.24;100.00;101854.44;5212838;28;20041;-87
2023/03/04 07:20:45;;;;;;;33.50;10.77;;;4.40;99.90;;;4.27;100.00;101856.34;5211868;28;20101;-86
2023/03/04 07:23:17;;;;;;;32.20;10.32;;;4.50;99.90;;;4.28;100.00;101850.38;5195272;28;20051;-87
2023/03/04 07:25:50;;;;;;;33.00;10.60;;;4.40;99.90;;;4.30;100.00;101861.72;5210608;28;20478;-86
2023/03/04 07:28:22;;;;;;;36.80;11.55;;;4.40;99.90;;;4.33;100.00;101872.31;5193915;28;20045;-87
2023/03/04 07:30:54;;;;;;;35.72;11.88;;;4.50;99.90;;;4.33;100.00;101864.56;5193028;28;20050;-87
2023/03/04 07:33:28;;;;;;;33.97;11.70;;;4.50;99.90;;;4.34;100.00;101861.19;5193092;28;20053;-86
2023/03/04 07:36:00;;;;;;;38.33;11.32;;;4.50;99.90;;;4.34;100.00;101866.34;5193283;28;20041;-86
2023/03/04 07:38:32;;;;;;;32.85;10.40;;;4.60;99.90;;;4.36;100.00;101857.03;5193172;28;20042;-87
2023/03/04 07:41:05;;;;;;;33.70;9.73;;;4.50;99.90;;;4.37;100.00;101864.03;5197070;28;20048;-85
2023/03/04 07:43:37;;;;;;;30.38;11.55;;;4.60;99.90;;;4.40;100.00;101869.41;5197333;28;20037;-86
2023/03/04 07:46:10;;;;;;;34.72;11.10;;;4.50;99.90;;;4.42;100.00;101872.09;5197191;28;20136;-86
2023/03/04 07:48:44;;;;;;;32.10;9.57;;;4.60;99.90;;;4.43;100.00;101867.03;5198886;28;20054;-91
2023/03/04 07:51:18;;;;;;;34.67;10.65;;;4.60;99.90;;;4.47;100.00;101866.50;5206561;28;20117;-90
2023/03/04 07:53:54;;;;;;;29.38;10.32;;;4.60;99.90;;;4.51;100.00;101870.25;5208937;28;20045;-89
2023/03/04 07:56:29;;;;;;;34.85;10.52;;;4.70;99.90;;;4.54;100.00;101870.44;5228903;28;20033;-90
2023/03/04 07:59:02;;;;;;;33.85;10.68;;;4.70;99.90;;;4.56;100.00;101866.28;5207028;28;20041;-88
2023/03/04 08:01:37;;;;;;;35.13;10.48;;;4.70;99.90;;;4.59;100.00;101872.59;5209546;28;20041;-89
2023/03/04 08:04:10;;;;;;;32.67;10.27;;;4.80;99.90;;;4.61;100.00;101867.53;5205671;28;20045;-87
2023/03/04 08:06:43;;;;;;;33.53;10.57;;;4.80;99.90;;;4.66;100.00;101871.38;5221434;28;20109;-89
2023/03/04 08:09:15;;;;;;;29.85;10.27;;;4.80;99.90;;;4.68;100.00;101867.22;5217926;28;20080;-89
2023/03/04 08:11:47;;;;;;;31.83;10.35;;;4.80;99.90;;;4.71;100.00;101874.31;5237862;28;20032;-89
2023/03/04 08:14:20;;;;;;;32.92;10.10;;;4.90;99.90;;;4.74;100.00;101872.84;5225979;28;20110;-89
2023/03/04 08:16:52;;;;;;;30.02;9.52;;;4.90;99.90;;;4.78;100.00;101879.16;5226985;28;20113;-88
2023/03/04 08:19:26;;;;;;;34.35;9.48;;;4.90;99.90;;;4.79;100.00;101873.22;5215642;28;20050;-87
2023/03/04 08:21:58;;;;;;;31.55;9.73;;;4.90;99.90;;;4.83;100.00;101877.84;5214410;28;20041;-86
2023/03/04 08:24:30;;;;;;;29.40;9.52;;;5.00;99.90;;;4.86;100.00;101884.09;5208147;28;20427;-89
2023/03/04 08:27:02;;;;;;;26.42;8.00;;;5.00;99.90;;;4.89;100.00;101881.78;5202934;28;20060;-89
2023/03/04 08:29:34;;;;;;;27.65;10.63;;;5.00;99.90;;;4.92;100.00;101878.50;5212726;28;20468;-89
2023/03/04 08:32:06;;;;;;;30.02;8.77;;;5.00;99.90;;;4.95;100.00;101873.56;5213655;28;20056;-88
2023/03/04 08:34:40;;;;;;;28.48;8.75;;;5.10;99.90;;;4.99;100.00;101869.53;5207527;28;20573;-88
2023/03/04 08:37:12;;;;;;;27.35;9.18;;;5.20;99.90;;;5.02;100.00;101874.91;5212512;28;20045;-88
2023/03/04 08:39:44;;;;;;;25.70;8.68;;;5.10;99.90;;;5.05;100.00;101878.63;5213591;28;20061;-87
2023/03/04 08:42:16;;;;;;;26.50;8.25;;;5.20;99.90;;;5.06;100.00;101875.25;5218981;28;20054;-87
2023/03/04 08:44:48;;;;;;;25.95;9.00;;;5.20;99.90;;;5.12;100.00;101880.88;5210803;28;20052;-87
2023/03/04 08:47:20;;;;;;;24.00;7.50;;;5.30;99.90;;;5.16;100.00;101880.34;5215093;28;20112;-87
2023/03/04 08:49:54;;;;;;;26.77;8.40;;;5.30;99.90;;;5.21;100.00;101883.22;5213825;28;20389;-86
2023/03/04 08:52:26;;;;;;;26.50;7.47;;;5.40;99.90;;;5.23;100.00;101880.78;5210912;28;20069;-87
2023/03/04 08:54:59;;;;;;;16.45;5.75;;;5.40;99.90;;;5.24;100.00;101883.47;5217318;28;20060;-88
2023/03/04 08:57:31;;;;;;;16.52;5.28;;;5.40;99.90;;;5.26;100.00;101886.16;5213420;28;20034;-88
2023/03/04 09:00:04;;;;;;;14.82;5.15;;;5.40;99.90;;;5.44;100.00;101874.56;5211192;28;20048;-91
2023/03/04 09:02:36;;;;;;;15.98;5.38;;;5.60;99.90;;;5.72;100.00;101883.53;5209320;28;20458;-90
2023/03/04 09:05:10;;;;;;;13.43;4.05;;;5.80;99.90;;;6.14;100.00;101882.22;5218109;28;20053;-85
2023/03/04 09:07:42;;;;;;;9.57;3.15;;;6.30;99.90;;;6.42;100.00;101873.75;5210044;28;20410;-88
2023/03/04 09:10:14;;;;;;;8.65;3.08;;;6.50;99.90;;;6.41;100.00;101884.91;5307494;23;20045;-54
2023/03/04 09:12:46;;;;;;;10.10;2.75;;;6.60;99.90;;;6.32;100.00;101879.97;5184578;28;20108;-56
2023/03/04 09:15:19;;;;;;;8.35;2.70;;;6.50;99.90;;;6.24;100.00;101883.75;5184998;28;20524;-55
2023/03/04 09:17:51;;;;;;;10.52;2.83;;;6.50;99.90;;;6.17;100.00;101886.69;5185062;28;20038;-55
2023/03/04 09:20:24;;;;;;;10.70;2.40;;;6.40;99.90;;;6.08;100.00;101881.78;5192929;28;20045;-56
2023/03/04 09:22:56;;;;;;;7.68;1.98;;;6.30;99.90;;;6.02;100.00;101886.53;5204424;28;20053;-55
2023/03/04 09:25:29;;;;;;;5.57;1.98;;;6.20;99.90;;;5.97;100.00;101880.13;5193470;28;20498;-53
2023/03/04 09:28:01;;;;;;;8.23;2.60;;;6.20;99.90;;;5.92;100.00;101878.91;5185275;28;20052;-55
2023/03/04 09:30:34;;;;;;;7.82;2.13;;;6.10;99.90;;;5.86;100.00;101881.00;5199063;28;20060;-55
2023/03/04 09:33:07;;;;;;;5.47;2.10;;;6.10;99.90;;;5.83;100.00;101886.00;5205288;28;20121;-53
2023/03/04 09:35:40;;;;;;;8.50;2.20;;;6.00;99.90;;;5.82;100.00;101886.78;5200760;28;20107;-55
2023/03/04 09:38:12;;;;;;;5.88;2.20;;;6.00;99.90;;;5.79;100.00;101887.44;5205114;28;20048;-53
2023/03/04 09:40:48;;;;;;;6.28;2.30;;;6.00;99.90;;;5.84;100.00;101880.91;5204004;28;20523;-57
2023/03/04 09:43:23;;;;;;;;;;;6.00;99.90;;;5.91;100.00;101882.28;5205425;28;20124;-54
2023/03/04 09:45:59;;;;;;;10.23;2.65;;;6.10;99.90;;;6.04;100.00;101884.94;5204934;28;19929;-55
2023/03/04 09:48:42;;;;;;;7.45;2.22;;;6.20;99.90;;;6.25;100.00;101878.66;5191366;28;20573;-54
2023/03/04 09:51:44;;;;;;;4.25;1.95;;;6.30;99.90;;;6.63;100.00;101874.31;5192752;28;20049;-54
2023/03/04 09:54:32;;;;;;;8.15;2.30;;;6.60;99.90;;;6.95;100.00;101877.38;5204492;28;20045;-54
2023/03/04 09:57:23;;;;;;;7.10;2.20;;;6.80;99.90;;;7.21;100.00;101863.53;5188758;28;20048;-54
2023/03/04 10:00:12;;;;;;;5.53;2.05;;;7.10;99.90;;;7.34;100.00;101863.53;5196057;28;20061;-53
2023/03/04 10:03:06;;;;;;;6.82;2.33;;;7.20;99.90;;;7.59;100.00;101870.28;5215366;28;20037;-54
2023/03/04 10:05:48;;;;;;;7.22;1.98;;;7.50;99.90;;;7.85;100.00;101866.75;5192583;28;20124;-54
2023/03/04 10:08:35;;;;;;;7.55;2.92;;;7.60;99.90;;;7.92;100.00;101868.03;5204570;28;20413;-54
2023/03/04 10:11:14;;;;;;;10.40;3.22;;;7.80;99.90;;;7.74;99.85;101858.28;5204543;28;20053;-54
2023/03/04 10:14:00;;;;;;;8.77;2.80;;;7.70;99.90;;;7.47;99.83;101865.22;5196537;28;20041;-54
2023/03/04 10:16:40;;;;;;;6.20;2.67;;;7.60;99.90;;;7.25;100.00;101862.94;5189875;28;20099;-56
2023/03/04 10:19:30;;;;;;;6.53;2.67;;;7.40;99.90;;;7.09;100.00;101867.91;5204633;28;20078;-55
2023/03/04 10:22:20;;;;;;;7.43;2.83;;;7.20;99.90;;;6.93;100.00;101871.19;5204569;28;20048;-55
2023/03/04 10:24:57;;;;;;;8.68;3.30;;;7.10;99.90;;;6.85;100.00;101858.53;5196359;28;20514;-54
2023/03/04 10:27:30;;;;;;;9.55;2.58;;;7.00;99.90;;;6.85;100.00;101856.84;5184173;28;20041;-54
2023/03/04 10:30:02;;;;;;;5.90;2.47;;;7.00;99.90;;;6.85;100.00;101862.03;5201627;28;20048;-55
2023/03/04 10:32:34;;;;;;;6.35;2.20;;;7.00;99.90;;;6.93;100.00;101855.66;5204120;28;20042;-55
2023/03/04 10:35:12;;;;;;;7.80;2.97;;;7.10;99.90;;;7.04;100.00;101852.06;5204099;28;20133;-53
2023/03/04 10:37:48;;;;;;;7.85;2.80;;;7.10;99.90;;;7.10;100.00;101848.06;5204347;28;20125;-53